Time;durP1;ratioP1;P1;durP2;ratioP2;P2;SDS_P1;SDS_P2;PMS_P1;PMS_P2;Temp;Humidity;BMP_temperature;BMP_pressure;BME280_temperature;BME280_humidity;BME280_pressure;Samples;Min_cycle;Max_cycle;Signal;HPM_P1;HPM_P2
2023/08/10 00:01:48;;;;;;;1.88;1.60;;;18.20;92.40;;;;;;4983876;28;20030;-94
2023/08/10 00:04:14;;;;;;;5.80;1.98;;;18.20;92.50;;;;;;4974099;28;20022;-94
2023/08/10 00:06:39;;;;;;;2.78;1.85;;;18.30;92.50;;;;;;4974012;28;20019;-94
2023/08/10 00:09:07;;;;;;;5.10;1.65;;;18.20;92.50;;;;;;4985416;28;20030;-92
2023/08/10 00:11:33;;;;;;;2.20;1.45;;;18.20;92.50;;;;;;4973833;28;20054;-94
2023/08/10 00:13:58;;;;;;;2.13;1.38;;;18.20;92.50;;;;;;4983386;28;20117;-94
2023/08/10 00:16:24;;;;;;;5.28;1.60;;;18.20;92.50;;;;;;4974193;28;20035;-94
2023/08/10 00:18:50;;;;;;;3.33;1.45;;;18.20;92.50;;;;;;4981867;28;20026;-92
2023/08/10 00:21:15;;;;;;;2.28;1.55;;;18.30;92.60;;;;;;4976418;28;20065;-92
2023/08/10 00:23:41;;;;;;;2.33;1.67;;;18.20;92.50;;;;;;4974370;28;20018;-93
2023/08/10 00:26:06;;;;;;;1.95;1.50;;;18.20;92.60;;;;;;4984850;28;20054;-92
2023/08/10 00:28:33;;;;;;;1.98;1.40;;;18.20;92.60;;;;;;4975604;28;20027;-92
2023/08/10 00:30:59;;;;;;;1.55;1.30;;;18.30;92.60;;;;;;4985739;28;20070;-91
2023/08/10 00:33:24;;;;;;;13.13;1.63;;;18.20;92.60;;;;;;4974402;28;20427;-92
2023/08/10 00:35:50;;;;;;;2.33;1.50;;;18.20;92.60;;;;;;4974020;28;20023;-92
2023/08/10 00:38:15;;;;;;;12.18;2.00;;;18.20;92.60;;;;;;4981882;28;20025;-91
2023/08/10 00:40:41;;;;;;;1.42;1.23;;;18.20;92.60;;;;;;4978960;28;20022;-91
2023/08/10 00:43:07;;;;;;;1.70;1.35;;;18.20;92.60;;;;;;4985595;28;20055;-90
2023/08/10 00:45:33;;;;;;;1.85;1.40;;;18.20;92.60;;;;;;4978208;28;20023;-91
2023/08/10 00:47:59;;;;;;;6.07;1.42;;;18.10;92.60;;;;;;4981439;28;20055;-92
2023/08/10 00:50:26;;;;;;;4.10;1.67;;;18.20;93.00;;;;;;4976643;28;20026;-92
2023/08/10 00:52:52;;;;;;;1.95;1.52;;;18.20;92.60;;;;;;4977305;28;20054;-91
2023/08/10 00:55:18;;;;;;;5.13;1.67;;;18.30;92.70;;;;;;4983085;28;20023;-92
2023/08/10 00:57:44;;;;;;;4.75;1.58;;;18.20;92.70;;;;;;4973994;28;20022;-93
2023/08/10 01:00:11;;;;;;;2.58;1.30;;;18.20;92.70;;;;;;4976721;28;20603;-92
2023/08/10 01:02:39;;;;;;;3.72;1.55;;;18.20;92.70;;;;;;4973992;28;20057;-92
2023/08/10 01:05:06;;;;;;;3.15;1.90;;;18.20;92.70;;;;;;4984542;28;20027;-92
2023/08/10 01:07:51;;;;;;;1.98;1.50;;;18.20;92.70;;;;;;4973400;28;20427;-92
2023/08/10 01:10:20;;;;;;;1.50;1.35;;;18.20;92.70;;;;;;4972793;28;20157;-92
2023/08/10 01:12:58;;;;;;;3.70;1.73;;;18.20;92.70;;;;;;4986659;28;20056;-92
2023/08/10 01:15:51;;;;;;;6.97;1.80;;;18.20;92.70;;;;;;4976962;28;20077;-93
2023/08/10 01:18:25;;;;;;;4.18;1.83;;;18.20;92.70;;;;;;4974800;28;20030;-91
2023/08/10 01:20:52;;;;;;;3.28;1.75;;;18.20;92.70;;;;;;4974063;28;20029;-91
2023/08/10 01:23:23;;;;;;;2.58;1.80;;;18.20;92.70;;;;;;4981460;28;20680;-91
2023/08/10 01:25:51;;;;;;;6.13;1.83;;;18.20;92.70;;;;;;4989745;28;20061;-91
2023/08/10 01:28:17;;;;;;;2.58;1.90;;;18.20;92.70;;;;;;4971536;28;20038;-90
2023/08/10 01:30:44;;;;;;;2.33;1.60;;;18.10;92.70;;;;;;4980614;28;20027;-91
2023/08/10 01:33:10;;;;;;;6.18;1.70;;;18.20;92.70;;;;;;4967507;28;20031;-90
2023/08/10 01:35:36;;;;;;;2.40;1.55;;;18.20;92.70;;;;;;4970424;28;20072;-91
2023/08/10 01:38:03;;;;;;;2.05;1.50;;;18.20;92.70;;;;;;4983974;28;20030;-91
2023/08/10 01:40:29;;;;;;;3.10;1.75;;;18.10;92.70;;;;;;4980650;28;20055;-91
2023/08/10 01:42:54;;;;;;;2.28;1.90;;;18.20;92.70;;;;;;4973077;28;20026;-91
2023/08/10 01:45:20;;;;;;;1.65;1.40;;;18.20;92.70;;;;;;4981642;28;20030;-91
2023/08/10 01:47:52;;;;;;;2.80;1.73;;;18.10;92.70;;;;;;4972679;28;20027;-91
2023/08/10 01:50:20;;;;;;;4.85;1.67;;;18.10;92.60;;;;;;4982879;28;20027;-92
2023/08/10 01:53:02;;;;;;;1.88;1.45;;;18.20;92.70;;;;;;4973761;28;20035;-92
2023/08/10 01:55:28;;;;;;;2.53;1.45;;;18.10;92.60;;;;;;4974244;28;20027;-91
2023/08/10 01:57:54;;;;;;;3.50;1.40;;;18.20;92.70;;;;;;4972536;28;20077;-91
2023/08/10 02:00:20;;;;;;;5.93;1.58;;;18.20;92.70;;;;;;4971948;28;20031;-91
2023/08/10 02:02:46;;;;;;;2.08;1.50;;;18.20;92.70;;;;;;4973081;28;20030;-92
2023/08/10 02:05:13;;;;;;;2.55;2.00;;;18.20;92.70;;;;;;4970265;28;20034;-93
2023/08/10 02:07:41;;;;;;;3.22;1.70;;;18.10;92.60;;;;;;4989104;28;20072;-92
2023/08/10 02:10:07;;;;;;;2.13;1.70;;;18.20;92.70;;;;;;4970824;28;20027;-90
2023/08/10 02:12:33;;;;;;;4.82;1.80;;;18.10;92.60;;;;;;4972359;28;20077;-91
2023/08/10 02:14:59;;;;;;;2.88;1.70;;;18.10;92.60;;;;;;4980724;28;20031;-91
2023/08/10 02:17:26;;;;;;;2.10;1.52;;;18.10;92.60;;;;;;4971891;28;20031;-91
2023/08/10 02:19:51;;;;;;;2.78;1.40;;;18.10;92.60;;;;;;4975687;28;20030;-92
2023/08/10 02:22:17;;;;;;;2.13;1.48;;;18.10;92.60;;;;;;4982685;28;20030;-92
2023/08/10 02:24:45;;;;;;;3.03;1.88;;;18.10;92.60;;;;;;4973421;28;20026;-93
2023/08/10 02:27:11;;;;;;;2.38;1.50;;;18.10;92.60;;;;;;4971896;28;20023;-93
2023/08/10 02:29:36;;;;;;;5.40;1.75;;;18.10;92.60;;;;;;4972835;28;20549;-92
2023/08/10 02:32:03;;;;;;;3.08;1.60;;;18.10;92.60;;;;;;4972931;28;20035;-93
2023/08/10 02:34:28;;;;;;;2.50;1.60;;;18.10;92.60;;;;;;4986564;28;20042;-93
2023/08/10 02:36:54;;;;;;;2.70;1.45;;;18.10;92.60;;;;;;4969933;28;20058;-93
2023/08/10 02:39:19;;;;;;;6.47;1.65;;;18.10;92.60;;;;;;4985195;28;20380;-92
2023/08/10 02:41:45;;;;;;;2.72;1.80;;;18.10;92.60;;;;;;4973458;28;20070;-92
2023/08/10 02:44:11;;;;;;;3.05;1.90;;;18.10;92.60;;;;;;4983766;28;20031;-93
2023/08/10 02:46:37;;;;;;;8.73;1.92;;;18.10;92.60;;;;;;4975715;28;20018;-92
2023/08/10 02:49:02;;;;;;;2.83;2.00;;;18.10;92.60;;;;;;4975114;28;20444;-92
2023/08/10 02:51:28;;;;;;;1.95;1.75;;;18.10;92.60;;;;;;4975525;28;20028;-94
2023/08/10 02:53:53;;;;;;;3.17;1.85;;;18.10;92.60;;;;;;4973901;28;20027;-92
2023/08/10 02:56:19;;;;;;;5.00;1.60;;;18.10;92.60;;;;;;4982603;28;20027;-92
2023/08/10 02:58:45;;;;;;;6.47;1.52;;;18.10;92.60;;;;;;4971388;28;20027;-93
2023/08/10 03:01:10;;;;;;;2.17;1.60;;;18.10;92.60;;;;;;4986234;28;20037;-93
2023/08/10 03:03:36;;;;;;;5.85;1.90;;;18.10;92.60;;;;;;4973487;28;20028;-93
2023/08/10 03:06:02;;;;;;;2.20;1.38;;;18.10;92.60;;;;;;4975911;28;20023;-93
2023/08/10 03:08:28;;;;;;;2.03;1.60;;;18.10;92.60;;;;;;4970589;28;20031;-92
2023/08/10 03:10:54;;;;;;;2.38;1.38;;;18.10;92.60;;;;;;4971921;28;20027;-92
2023/08/10 03:13:19;;;;;;;7.03;1.65;;;18.10;92.60;;;;;;4983140;28;20023;-92
2023/08/10 03:15:45;;;;;;;2.30;1.55;;;18.10;92.60;;;;;;4972720;28;20027;-94
2023/08/10 03:18:10;;;;;;;3.55;1.80;;;18.20;92.60;;;;;;4983298;28;20074;-91
2023/08/10 03:20:36;;;;;;;1.83;1.55;;;18.10;92.50;;;;;;4972075;28;20027;-92
2023/08/10 03:23:02;;;;;;;2.85;1.77;;;18.10;92.50;;;;;;4971920;28;20027;-92
2023/08/10 03:25:27;;;;;;;2.50;1.70;;;18.10;92.50;;;;;;4970864;28;20717;-93
2023/08/10 03:27:53;;;;;;;4.00;1.88;;;18.10;92.50;;;;;;4966148;28;20034;-93
2023/08/10 03:30:18;;;;;;;5.43;1.38;;;18.10;92.50;;;;;;4984698;28;20120;-93
2023/08/10 03:32:44;;;;;;;2.65;1.58;;;18.10;92.50;;;;;;4987360;28;20113;-93
2023/08/10 03:35:10;;;;;;;3.70;2.00;;;18.10;92.50;;;;;;4968918;28;20110;-93
2023/08/10 03:37:36;;;;;;;3.28;1.67;;;18.10;92.50;;;;;;4975079;28;20317;-93
2023/08/10 03:40:02;;;;;;;10.20;1.67;;;18.10;92.50;;;;;;4990387;28;20476;-92
2023/08/10 03:42:28;;;;;;;2.53;1.92;;;18.10;92.50;;;;;;4973738;28;20142;-93
2023/08/10 03:44:55;;;;;;;3.05;2.20;;;18.10;92.50;;;;;;4971348;28;20058;-92
2023/08/10 03:47:21;;;;;;;2.58;1.70;;;18.10;92.50;;;;;;4974041;28;20483;-93
2023/08/10 03:49:47;;;;;;;2.33;1.83;;;18.10;92.50;;;;;;4976085;28;20538;-93
2023/08/10 03:52:13;;;;;;;3.65;1.88;;;18.10;92.50;;;;;;4988108;28;20026;-93
2023/08/10 03:54:38;;;;;;;4.10;1.88;;;18.10;92.50;;;;;;4991493;28;20530;-94
2023/08/10 03:57:07;;;;;;;13.15;1.70;;;18.10;92.50;;;;;;4975167;28;20030;-94
2023/08/10 03:59:33;;;;;;;4.28;1.63;;;18.00;92.50;;;;;;4974205;28;20067;-93
2023/08/10 04:01:58;;;;;;;3.65;1.85;;;18.10;92.50;;;;;;4976890;28;20498;-94
2023/08/10 04:04:24;;;;;;;1.98;1.40;;;18.10;92.50;;;;;;4984495;28;20027;-94
2023/08/10 04:06:49;;;;;;;3.47;1.55;;;18.10;92.50;;;;;;4974969;28;20054;-93
2023/08/10 04:09:15;;;;;;;2.35;1.70;;;18.10;92.50;;;;;;4974904;28;20026;-95
2023/08/10 04:11:41;;;;;;;6.25;2.00;;;18.10;92.50;;;;;;4978828;28;20022;-94
2023/08/10 04:14:06;;;;;;;2.22;1.67;;;18.10;92.50;;;;;;4976962;28;20478;-93
2023/08/10 04:16:32;;;;;;;6.25;1.77;;;18.10;92.50;;;;;;4982898;28;20118;-93
2023/08/10 04:18:59;;;;;;;4.70;2.13;;;18.10;92.50;;;;;;4974920;28;20085;-93
2023/08/10 04:21:24;;;;;;;2.33;1.65;;;18.10;92.50;;;;;;4974971;28;20054;-94
2023/08/10 04:23:50;;;;;;;3.70;1.90;;;17.70;92.40;;;;;;4975908;28;20042;-93
2023/08/10 04:26:16;;;;;;;2.33;1.73;;;18.10;92.50;;;;;;4985796;28;20079;-89
2023/08/10 04:28:42;;;;;;;2.70;1.80;;;18.10;92.50;;;;;;4974015;28;20018;-94
2023/08/10 04:31:08;;;;;;;2.45;1.70;;;19.10;92.80;;;;;;4974898;28;20031;-94
2023/08/10 04:33:33;;;;;;;4.97;1.67;;;18.10;92.50;;;;;;4977142;28;20069;-94
2023/08/10 04:35:59;;;;;;;2.72;1.90;;;18.90;92.70;;;;;;4976819;28;20023;-96
2023/08/10 04:38:28;;;;;;;2.63;2.03;;;18.30;92.50;;;;;;4987549;28;20027;-96
2023/08/10 04:40:54;;;;;;;5.07;2.00;;;18.10;92.40;;;;;;4975278;28;20035;-94
2023/08/10 04:43:19;;;;;;;3.65;1.73;;;18.10;92.50;;;;;;4978605;28;20023;-94
2023/08/10 04:45:45;;;;;;;4.63;2.30;;;18.10;92.50;;;;;;4992147;28;20034;-94
2023/08/10 04:48:12;;;;;;;7.40;2.10;;;18.10;92.40;;;;;;4975930;28;20081;-95
2023/08/10 04:50:38;;;;;;;10.20;2.30;;;18.00;92.40;;;;;;4975479;28;20027;-95
2023/08/10 04:53:03;;;;;;;6.53;2.17;;;18.00;92.40;;;;;;4977635;28;20025;-94
2023/08/10 04:55:30;;;;;;;4.30;2.30;;;18.10;92.40;;;;;;4978174;28;20023;-93
2023/08/10 04:57:56;;;;;;;4.40;2.03;;;18.00;92.40;;;;;;4974758;28;20042;-94
2023/08/10 05:00:23;;;;;;;5.70;2.40;;;18.00;92.40;;;;;;4978426;28;20060;-94
2023/08/10 05:02:50;;;;;;;3.97;2.13;;;18.10;92.40;;;;;;4991744;28;20031;-93
2023/08/10 05:05:16;;;;;;;4.88;1.95;;;18.10;92.70;;;;;;4972214;28;20027;-94
2023/08/10 05:07:41;;;;;;;5.65;2.40;;;18.10;92.40;;;;;;4982246;28;20019;-94
2023/08/10 05:10:08;;;;;;;6.60;2.55;;;18.10;92.30;;;;;;4974273;28;20054;-94
2023/08/10 05:12:35;;;;;;;5.38;2.17;;;18.10;92.30;;;;;;4977636;28;20077;-94
2023/08/10 05:15:01;;;;;;;8.73;2.83;;;18.10;92.30;;;;;;4977583;28;20034;-93
2023/08/10 05:17:27;;;;;;;7.72;2.20;;;18.10;92.30;;;;;;4986978;28;20034;-95
2023/08/10 05:19:52;;;;;;;7.13;2.35;;;18.10;92.30;;;;;;4995001;28;20125;-95
2023/08/10 05:22:19;;;;;;;3.75;2.25;;;18.10;92.30;;;;;;4974712;28;20038;-94
2023/08/10 05:24:45;;;;;;;7.43;3.00;;;18.10;92.30;;;;;;4974683;28;20361;-93
2023/08/10 05:27:10;;;;;;;4.78;2.28;;;18.10;92.60;;;;;;4973616;28;20080;-93
2023/08/10 05:29:36;;;;;;;5.97;2.45;;;18.10;92.30;;;;;;4984269;28;20035;-94
2023/08/10 05:32:02;;;;;;;13.20;2.53;;;18.10;92.20;;;;;;4974823;28;20062;-94
2023/08/10 05:34:27;;;;;;;5.57;2.53;;;18.10;92.20;;;;;;4974501;28;20172;-94
2023/08/10 05:36:53;;;;;;;3.72;2.50;;;18.10;92.20;;;;;;4990523;28;20081;-93
2023/08/10 05:39:19;;;;;;;3.55;2.40;;;18.20;92.20;;;;;;4982927;28;20190;-93
2023/08/10 05:41:45;;;;;;;8.00;2.60;;;18.10;92.10;;;;;;4958102;28;20037;-93
2023/08/10 05:44:12;;;;;;;3.60;2.30;;;18.10;92.50;;;;;;4974257;28;20117;-92
2023/08/10 05:46:38;;;;;;;4.82;2.58;;;18.10;92.10;;;;;;4983209;28;20026;-93
2023/08/10 05:49:04;;;;;;;6.50;3.00;;;18.10;92.20;;;;;;4980193;28;20030;-92
2023/08/10 05:51:29;;;;;;;3.35;2.35;;;18.10;92.10;;;;;;4975008;28;20543;-93
2023/08/10 05:53:55;;;;;;;3.78;2.58;;;18.10;92.50;;;;;;4990271;28;20127;-92
2023/08/10 05:56:21;;;;;;;9.00;2.28;;;18.10;92.10;;;;;;4974136;28;20066;-91
2023/08/10 05:58:46;;;;;;;5.25;2.67;;;18.00;92.10;;;;;;4983478;28;20122;-91
2023/08/10 06:01:13;;;;;;;2.28;2.03;;;18.10;92.20;;;;;;4974021;28;20536;-93
2023/08/10 06:03:39;;;;;;;3.60;2.38;;;18.20;92.20;;;;;;4982898;28;20027;-91
2023/08/10 06:06:08;;;;;;;3.88;2.60;;;18.20;92.30;;;;;;4973687;28;20468;-91
2023/08/10 06:08:34;;;;;;;4.22;2.75;;;18.20;92.30;;;;;;4973548;28;20027;-93
2023/08/10 06:11:00;;;;;;;8.35;2.78;;;18.20;92.30;;;;;;4992578;28;20032;-91
2023/08/10 06:13:26;;;;;;;8.05;3.28;;;18.20;92.30;;;;;;4973863;28;20023;-91
2023/08/10 06:15:51;;;;;;;19.85;4.32;;;18.20;92.30;;;;;;4972959;28;20435;-91
2023/08/10 06:18:17;;;;;;;4.10;2.80;;;18.20;92.30;;;;;;4973486;28;20129;-91
2023/08/10 06:20:44;;;;;;;5.15;3.15;;;18.20;92.20;;;;;;4974032;28;20033;-90
2023/08/10 06:23:11;;;;;;;4.40;3.13;;;18.20;92.30;;;;;;4990007;28;20034;-92
2023/08/10 06:25:37;;;;;;;7.47;2.85;;;18.20;92.40;;;;;;4975901;28;20023;-91
2023/08/10 06:28:02;;;;;;;5.25;2.85;;;18.20;92.30;;;;;;4976526;28;20520;-90
2023/08/10 06:30:28;;;;;;;8.02;2.90;;;18.30;92.40;;;;;;4974511;28;20030;-88
2023/08/10 06:32:54;;;;;;;5.25;3.20;;;18.20;92.30;;;;;;4989854;28;20078;-91
2023/08/10 06:35:20;;;;;;;6.00;3.20;;;18.20;92.40;;;;;;4973714;28;20033;-92
2023/08/10 06:37:48;;;;;;;6.15;2.50;;;18.30;92.40;;;;;;4982342;28;20055;-92
2023/08/10 06:40:15;;;;;;;13.40;3.83;;;18.30;92.40;;;;;;4973536;28;20030;-93
2023/08/10 06:42:41;;;;;;;4.60;3.05;;;18.40;92.50;;;;;;4974342;28;20073;-91
2023/08/10 06:48:28;;;;;;;4.43;2.60;;;18.30;92.50;;;;;;4975997;28;20446;-91
2023/08/10 06:50:54;;;;;;;6.90;2.65;;;18.30;92.50;;;;;;4973784;28;20023;-91
2023/08/10 06:53:19;;;;;;;4.60;2.78;;;18.30;92.50;;;;;;4974104;28;20058;-92
2023/08/10 06:55:47;;;;;;;5.97;2.83;;;18.30;92.50;;;;;;4974375;28;20030;-90
2023/08/10 06:58:13;;;;;;;6.10;2.88;;;18.30;92.50;;;;;;4988660;28;20023;-91
2023/08/10 07:00:39;;;;;;;4.45;3.15;;;18.30;92.60;;;;;;4973091;28;20026;-91
2023/08/10 07:03:06;;;;;;;5.95;3.30;;;18.30;92.50;;;;;;4983191;28;20023;-93
2023/08/10 07:05:36;;;;;;;3.65;2.58;;;18.30;92.50;;;;;;4974834;28;20502;-92
2023/08/10 07:08:02;;;;;;;4.72;3.22;;;18.30;92.50;;;;;;4981469;28;20015;-92
2023/08/10 07:10:28;;;;;;;5.03;3.05;;;18.30;92.50;;;;;;4972780;28;20030;-91
2023/08/10 07:12:53;;;;;;;8.02;3.35;;;19.30;92.80;;;;;;4973852;28;20027;-91
2023/08/10 07:15:19;;;;;;;7.78;3.40;;;18.30;92.50;;;;;;4976693;28;20056;-91
2023/08/10 07:17:45;;;;;;;8.50;3.05;;;18.30;92.50;;;;;;4977151;28;20583;-91
2023/08/10 07:20:10;;;;;;;11.27;2.90;;;18.30;92.60;;;;;;4978294;28;20080;-91
2023/08/10 07:22:36;;;;;;;4.82;2.70;;;18.30;92.60;;;;;;4977494;28;20023;-92
2023/08/10 07:25:05;;;;;;;5.45;3.00;;;18.30;92.60;;;;;;4993410;28;20030;-93
2023/08/10 07:27:35;;;;;;;4.80;2.90;;;18.30;92.60;;;;;;4973801;28;20543;-91
2023/08/10 07:30:03;;;;;;;3.83;2.33;;;18.30;92.60;;;;;;4993428;28;20266;-91
2023/08/10 07:32:29;;;;;;;4.43;3.10;;;18.30;92.60;;;;;;4979859;28;20468;-92
2023/08/10 07:34:55;;;;;;;5.00;2.80;;;18.30;92.60;;;;;;4976827;28;20039;-91
2023/08/10 07:37:20;;;;;;;4.88;2.88;;;18.30;92.60;;;;;;4976736;28;20077;-91
2023/08/10 07:39:47;;;;;;;7.85;3.10;;;18.30;92.60;;;;;;4986458;28;20045;-91
2023/08/10 07:42:13;;;;;;;4.60;3.20;;;18.20;92.60;;;;;;4976299;28;20033;-91
2023/08/10 07:44:39;;;;;;;8.80;3.55;;;18.30;92.60;;;;;;4988017;28;20118;-91
2023/08/10 07:47:05;;;;;;;4.05;3.00;;;18.30;92.60;;;;;;4996349;28;20077;-90
2023/08/10 07:49:31;;;;;;;8.50;3.28;;;18.30;92.60;;;;;;4976611;28;20475;-91
2023/08/10 07:51:58;;;;;;;6.60;3.08;;;18.30;92.60;;;;;;4984853;28;20046;-91
2023/08/10 07:54:25;;;;;;;6.97;2.55;;;18.30;92.60;;;;;;4976371;28;20080;-89
2023/08/10 07:56:51;;;;;;;5.15;2.95;;;18.30;92.70;;;;;;4985649;28;20080;-91
2023/08/10 07:59:16;;;;;;;2.67;1.92;;;18.30;92.70;;;;;;4976935;28;20505;-91
2023/08/10 08:01:42;;;;;;;4.22;2.90;;;18.30;92.70;;;;;;4984605;28;20019;-90
2023/08/10 08:04:08;;;;;;;8.18;2.83;;;18.30;92.70;;;;;;4992572;28;20114;-90
2023/08/10 08:06:36;;;;;;;5.93;3.03;;;18.30;92.70;;;;;;4979221;28;20051;-90
2023/08/10 08:09:04;;;;;;;4.80;2.90;;;18.30;92.60;;;;;;4986107;28;20019;-90
2023/08/10 08:11:30;;;;;;;5.97;2.50;;;18.30;92.70;;;;;;4992403;28;20038;-91
2023/08/10 08:13:55;;;;;;;4.10;2.40;;;18.30;92.70;;;;;;4985189;28;20077;-91
2023/08/10 08:16:21;;;;;;;3.85;2.42;;;18.30;92.70;;;;;;4983787;28;20022;-91
2023/08/10 08:18:48;;;;;;;2.53;2.10;;;18.30;93.00;;;;;;4975542;28;20019;-91
2023/08/10 08:21:17;;;;;;;4.30;2.47;;;18.30;92.70;;;;;;4987782;28;20046;-91
2023/08/10 08:23:44;;;;;;;3.17;2.13;;;18.30;92.70;;;;;;4975687;28;20031;-90
2023/08/10 08:26:10;;;;;;;6.32;2.55;;;18.30;92.80;;;;;;4971830;28;20117;-91
2023/08/10 08:28:35;;;;;;;3.92;2.60;;;18.30;92.80;;;;;;4975401;28;20046;-91
2023/08/10 08:31:01;;;;;;;4.22;2.60;;;18.30;92.80;;;;;;4976086;28;20033;-91
2023/08/10 08:33:27;;;;;;;3.63;2.80;;;18.30;92.80;;;;;;4975526;28;20077;-89
2023/08/10 08:35:54;;;;;;;4.68;2.47;;;18.30;92.80;;;;;;4975298;28;20035;-90
2023/08/10 08:38:19;;;;;;;4.82;2.55;;;18.30;92.90;;;;;;4972324;28;20035;-90
2023/08/10 08:40:48;;;;;;;3.90;2.88;;;18.30;92.80;;;;;;4979410;28;20033;-90
2023/08/10 08:43:13;;;;;;;3.22;2.30;;;18.30;92.80;;;;;;4974757;28;20027;-92
2023/08/10 08:45:40;;;;;;;2.67;2.17;;;18.30;92.90;;;;;;4975350;28;20076;-91
2023/08/10 08:48:07;;;;;;;2.92;2.35;;;18.30;92.90;;;;;;4973801;28;20014;-91
2023/08/10 08:50:37;;;;;;;4.82;1.70;;;18.40;92.90;;;;;;4974612;28;20027;-92
2023/08/10 08:53:08;;;;;;;3.70;2.33;;;18.30;92.90;;;;;;4978965;28;20112;-90
2023/08/10 08:55:34;;;;;;;4.50;2.28;;;18.30;92.90;;;;;;4973860;28;20042;-89
2023/08/10 08:58:00;;;;;;;3.63;2.63;;;18.40;93.00;;;;;;4974172;28;20051;-92
2023/08/10 09:00:25;;;;;;;10.38;5.78;;;18.40;93.00;;;;;;4971819;28;20031;-90
2023/08/10 09:02:51;;;;;;;8.77;4.07;;;18.40;93.00;;;;;;4984803;28;20030;-89
2023/08/10 09:05:20;;;;;;;5.40;2.55;;;18.40;93.30;;;;;;4975525;28;20023;-89
2023/08/10 09:07:46;;;;;;;7.40;2.45;;;18.40;92.90;;;;;;4973590;28;20023;-90
2023/08/10 09:10:12;;;;;;;7.53;2.83;;;18.40;93.00;;;;;;4976357;28;20035;-90
2023/08/10 09:12:39;;;;;;;3.80;3.03;;;18.40;93.00;;;;;;4975089;28;20027;-91
2023/08/10 09:15:12;;;;;;;5.10;3.20;;;18.40;93.00;;;;;;4983808;28;20042;-90
2023/08/10 09:17:47;;;;;;;4.03;2.70;;;18.40;93.10;;;;;;4974882;28;20031;-91
2023/08/10 09:20:18;;;;;;;3.05;2.22;;;18.40;93.10;;;;;;4974061;28;20023;-90
2023/08/10 09:22:44;;;;;;;3.78;2.40;;;18.40;93.10;;;;;;4971484;28;20027;-92
2023/08/10 09:25:10;;;;;;;3.85;2.33;;;18.40;93.30;;;;;;4974251;28;20117;-94
2023/08/10 09:27:35;;;;;;;9.48;2.35;;;18.40;93.00;;;;;;4990516;28;20042;-89
2023/08/10 09:30:03;;;;;;;4.50;2.60;;;18.40;93.00;;;;;;4974006;28;20027;-90
2023/08/10 09:32:29;;;;;;;4.68;2.40;;;18.40;93.00;;;;;;4971898;28;20034;-92
2023/08/10 09:34:55;;;;;;;4.68;2.28;;;18.40;92.90;;;;;;4972200;28;20114;-91
2023/08/10 09:37:23;;;;;;;4.03;1.85;;;18.40;93.00;;;;;;4989678;28;20031;-91
2023/08/10 09:39:54;;;;;;;2.88;2.40;;;18.40;93.00;;;;;;4971158;28;20039;-92
2023/08/10 09:42:19;;;;;;;3.67;2.25;;;18.40;92.90;;;;;;4980680;28;20019;-90
2023/08/10 09:44:50;;;;;;;3.70;2.17;;;18.40;92.90;;;;;;4970354;28;20030;-91
2023/08/10 09:47:16;;;;;;;3.53;1.83;;;18.50;92.90;;;;;;4973257;28;20102;-92
2023/08/10 09:50:03;;;;;;;5.63;2.55;;;18.50;92.90;;;;;;4971642;28;20034;-92
2023/08/10 09:52:29;;;;;;;4.07;2.75;;;18.40;92.80;;;;;;4968968;28;20027;-91
2023/08/10 09:54:56;;;;;;;5.13;2.55;;;18.40;92.90;;;;;;4971321;28;20026;-90
2023/08/10 09:57:24;;;;;;;2.97;2.28;;;18.50;92.90;;;;;;4972349;28;20391;-89
2023/08/10 09:59:51;;;;;;;2.88;2.28;;;18.40;92.90;;;;;;4972385;28;20114;-90
2023/08/10 10:02:17;;;;;;;4.28;2.63;;;18.50;92.90;;;;;;4975468;28;20114;-91
2023/08/10 10:04:44;;;;;;;2.42;1.90;;;18.40;92.90;;;;;;4972928;28;20019;-90
2023/08/10 10:07:12;;;;;;;7.90;2.60;;;18.50;92.90;;;;;;4980687;28;20033;-90
2023/08/10 10:09:39;;;;;;;2.28;2.00;;;18.40;92.90;;;;;;4975358;28;20114;-92
2023/08/10 10:12:13;;;;;;;3.20;1.95;;;18.50;93.00;;;;;;4979727;28;20031;-91
2023/08/10 10:14:40;;;;;;;9.85;2.40;;;18.50;92.90;;;;;;4976108;28;20062;-91
2023/08/10 10:17:11;;;;;;;3.97;2.42;;;18.50;92.90;;;;;;4971591;28;20045;-92
2023/08/10 10:19:38;;;;;;;2.92;2.10;;;18.50;92.90;;;;;;4984457;28;20016;-91
2023/08/10 10:22:04;;;;;;;3.80;2.25;;;18.50;92.90;;;;;;4971716;28;20027;-91
2023/08/10 10:24:33;;;;;;;5.82;2.88;;;18.50;92.90;;;;;;4964997;28;20023;-92
2023/08/10 10:27:00;;;;;;;2.40;2.00;;;18.50;92.90;;;;;;4966808;28;20424;-90
2023/08/10 10:29:48;;;;;;;2.50;1.80;;;18.50;92.90;;;;;;4971914;28;20073;-92
2023/08/10 10:32:24;;;;;;;3.20;2.28;;;18.50;92.90;;;;;;4971123;28;20069;-93
2023/08/10 10:34:52;;;;;;;3.80;2.25;;;18.50;92.80;;;;;;4968753;28;20077;-90
2023/08/10 10:37:28;;;;;;;5.47;2.25;;;18.50;92.80;;;;;;4968564;28;20026;-93
2023/08/10 10:40:12;;;;;;;4.20;2.30;;;18.50;92.80;;;;;;4971315;28;20122;-91
2023/08/10 10:43:03;;;;;;;7.03;2.33;;;18.50;92.90;;;;;;4985006;28;20113;-92
2023/08/10 10:45:50;;;;;;;3.63;2.10;;;18.50;92.90;;;;;;4968183;28;20026;-92
2023/08/10 10:48:15;;;;;;;3.03;1.98;;;18.60;92.90;;;;;;4981326;28;20021;-90
2023/08/10 10:50:43;;;;;;;3.10;2.13;;;18.50;92.90;;;;;;4989721;28;20046;-91
2023/08/10 10:53:12;;;;;;;6.38;2.83;;;18.60;92.90;;;;;;4975964;28;20066;-91
2023/08/10 10:55:44;;;;;;;3.47;2.38;;;18.60;92.90;;;;;;4994641;28;20023;-89
2023/08/10 10:58:11;;;;;;;5.20;2.40;;;18.60;92.90;;;;;;4976576;28;20676;-91
2023/08/10 11:00:38;;;;;;;4.45;2.63;;;18.60;92.90;;;;;;4978527;28;20027;-90
2023/08/10 11:03:05;;;;;;;5.00;2.03;;;18.60;92.90;;;;;;4986518;28;20061;-91
2023/08/10 11:05:31;;;;;;;1.92;1.60;;;18.60;92.80;;;;;;4983945;28;20076;-89
2023/08/10 11:08:03;;;;;;;3.50;1.98;;;18.60;92.90;;;;;;4980845;28;20033;-93
2023/08/10 11:10:31;;;;;;;2.70;2.15;;;18.60;92.80;;;;;;4975342;28;20023;-94
2023/08/10 11:12:57;;;;;;;3.58;2.10;;;18.60;92.80;;;;;;4979229;28;20178;-92
2023/08/10 11:15:23;;;;;;;2.88;2.17;;;18.60;92.80;;;;;;4977833;28;20132;-92
2023/08/10 11:17:52;;;;;;;4.18;1.92;;;18.60;92.80;;;;;;4976417;28;20074;-95
2023/08/10 11:20:20;;;;;;;5.80;2.00;;;18.60;92.80;;;;;;4980128;28;20023;-91
2023/08/10 11:22:53;;;;;;;2.83;2.15;;;18.60;92.70;;;;;;4979887;28;20047;-92
2023/08/10 11:25:21;;;;;;;2.90;2.03;;;18.60;93.00;;;;;;4975428;28;20105;-91
2023/08/10 11:27:49;;;;;;;3.67;2.08;;;18.70;92.70;;;;;;4975890;28;20566;-90
2023/08/10 11:30:17;;;;;;;2.97;1.92;;;18.70;92.70;;;;;;4985863;28;20534;-92
2023/08/10 11:32:45;;;;;;;2.25;1.48;;;18.70;92.70;;;;;;4975370;28;20034;-94
2023/08/10 11:35:13;;;;;;;7.07;2.20;;;18.70;92.70;;;;;;4986610;28;20041;-96
2023/08/10 11:37:40;;;;;;;4.18;2.53;;;18.70;92.70;;;;;;4977500;28;20106;-93
2023/08/10 11:40:13;;;;;;;6.18;2.60;;;18.70;92.70;;;;;;4976538;28;20129;-96
2023/08/10 11:42:44;;;;;;;4.07;2.03;;;18.70;92.70;;;;;;4992932;28;20022;-91
2023/08/10 11:45:16;;;;;;;3.17;2.35;;;18.70;92.70;;;;;;4975247;28;20495;-93
2023/08/10 11:47:52;;;;;;;3.80;2.70;;;18.70;92.70;;;;;;4973769;28;20463;-94
2023/08/10 11:50:20;;;;;;;3.15;2.30;;;18.70;92.70;;;;;;4975517;28;20034;-93
2023/08/10 11:52:46;;;;;;;2.88;2.25;;;18.70;92.70;;;;;;4975320;28;20022;-95
2023/08/10 11:55:16;;;;;;;4.45;2.38;;;18.60;92.70;;;;;;4984141;28;20026;-95
2023/08/10 11:57:51;;;;;;;3.92;2.40;;;18.70;92.70;;;;;;4991791;28;20031;-94
2023/08/10 12:00:30;;;;;;;2.83;2.15;;;18.70;92.70;;;;;;4973569;28;20058;-94
2023/08/10 12:03:23;;;;;;;3.70;2.38;;;18.70;92.60;;;;;;4989082;28;20039;-93
2023/08/10 12:05:54;;;;;;;4.10;1.92;;;18.70;92.60;;;;;;4974900;28;20066;-95
2023/08/10 12:08:31;;;;;;;3.83;2.30;;;18.70;92.60;;;;;;4977675;28;20034;-95
2023/08/10 12:11:03;;;;;;;4.30;2.70;;;18.70;92.50;;;;;;4975666;28;20063;-95
2023/08/10 12:13:29;;;;;;;3.58;2.42;;;18.70;92.60;;;;;;4968885;28;20482;-94
2023/08/10 12:15:56;;;;;;;4.45;2.03;;;18.70;92.50;;;;;;4975232;28;20027;-93
2023/08/10 12:18:23;;;;;;;3.20;2.50;;;18.90;92.60;;;;;;4985608;28;20109;-94
2023/08/10 12:20:51;;;;;;;4.20;2.25;;;18.60;92.50;;;;;;4978128;28;20034;-93
2023/08/10 12:23:17;;;;;;;3.00;2.40;;;18.70;92.90;;;;;;4984356;28;20026;-94
2023/08/10 12:25:44;;;;;;;3.20;1.80;;;18.70;92.50;;;;;;4975484;28;20034;-93
2023/08/10 12:28:10;;;;;;;3.83;2.80;;;18.70;92.50;;;;;;4983741;28;20026;-95
2023/08/10 12:30:37;;;;;;;2.60;2.10;;;19.60;92.70;;;;;;4991741;28;20033;-94
2023/08/10 12:33:04;;;;;;;2.75;2.10;;;18.70;92.40;;;;;;4976122;28;20030;-88
2023/08/10 12:35:30;;;;;;;6.75;2.45;;;18.70;92.40;;;;;;4994919;28;20394;-95
2023/08/10 12:37:55;;;;;;;2.10;1.77;;;19.20;92.50;;;;;;4976567;28;20030;-94
2023/08/10 12:40:21;;;;;;;5.28;2.42;;;18.70;92.30;;;;;;4986282;28;20094;-94
2023/08/10 12:42:47;;;;;;;7.80;2.20;;;18.80;92.30;;;;;;4976736;28;20070;-96
2023/08/10 12:45:14;;;;;;;6.30;2.17;;;18.70;92.30;;;;;;4987693;28;20026;-96
2023/08/10 12:47:42;;;;;;;3.70;2.17;;;18.80;92.30;;;;;;4992345;28;20030;-91
2023/08/10 12:50:14;;;;;;;5.93;2.13;;;18.80;92.30;;;;;;4976340;28;20034;-91